Pointe-des-Cascades, Quebec

6:56 PM EDT on September 30, 2014 (GMT -0400)
| Change Station
CLOSE
Current Station
Personal Weather Station
Location: ,
Elevation: -9999 ft
Nearby Weather Stations

Elev -9999 ft 0.00 °N, 0.00 °E | Updated

Cloudy
Cloudy
58 °F
Feels Like 58 °F
N
7
Wind Variable Wind from NE
Gusts mph

Tomorrow is forecast to be nearly the same temperature as today.

Today
High -- | Low -- °F
--% Chance of Precip.
Yesterday
High -- | Low -- °F
Precip. -- in
6:52 AM 6:38 PM
Waxing Crescent, 41% visible
Pressure 30.01 in
Visibility 15.0 miles
Clouds Scattered Clouds 24000 ft
Dew Point 55 °F
Humidity 91%
Rainfall -9999.00 in
Snow Depth Not available.
UV 0 out of 12
Pollen Not available.
Air Quality Not available.
Flu Activity Not available.
METAR CYUL 302200Z 02012G17KT 15SM SCT240 15/11 A3001 RMK CI4 SLP163

More Conditions Fewer Conditions

Pressure 30.01 in
Visibility 15.0 miles
Clouds Scattered Clouds 24000 ft
Dew Point 55 °F
Humidity 91%
Rainfall -9999.00 in
Snow Depth Not available.
UV 0 out of 12
Pollen Not available.
Air Quality Not available.
Flu Activity Not available.
METAR CYUL 302200Z 02012G17KT 15SM SCT240 15/11 A3001 RMK CI4 SLP163

More Conditions Fewer Conditions

10-Day Weather Forecast

Almanac

Astronomy

Sep. 30, 2014 Rise Set
Actual Time 6:52 AM EDT 6:38 PM EDT
Civil Twilight 6:23 AM EDT 7:07 PM EDT
Nautical Twilight 5:49 AM EDT 7:41 PM EDT
Astronomical Twilight 5:14 AM EDT 8:16 PM EDT
Moon 1:11 PM EDT 10:53 PM EDT
Length of Visible Light 12h 44m
Length of Day
11h 45m
Tomorrow will be 3m 9s shorter.
Waxing Crescent, 41% of the Moon is Illuminated
Today
Waxing Crescent
Oct 1
First Quarter
Oct 8
Full
Oct 15
Last Quarter
Oct 23
New

Today's Extremes

Country Highs Country Lows

Community

WunderPhotos

Upload Photos

1,757,767 photos uploaded!

Nearby

Snow Depth

Not available.

Earthquake Activity

City Distance Mag. Time & Date
No recent earthquake activity has been reported nearby.
Minimum magnitude displayed is 2.5.

Coastal Water Temperatures

Place Temperature
No Stations Reporting

Nearby Weather Stations